Monroe Regional Airport
KMLU : rendu visible

Aérodrome :











RETROUVEZ-NOUS SUR...

 
LOGIN :

S'inscrire | Disclaimer

   EN    FR    IT 

 









Légende :    VFR   VFR Marginal   IFR   IFR Intensif   IFR Très Intensif
Visi : 
Plafond : 
>= 8 km
>= 3000ft
5 à 8 km
1000 à 3000 ft
1500m à 5 km
500 à 1000 ft
800 à 1500m
200 à 500 ft
< 800m
< 200 ft
Symboles :   Orages  Brouillard  Fortes neiges  Fortes précipitations  Vent > 20 kt






- Altitude de l'aérodrome : 79 ft
- Code IATA : MLU


KMLU - Monroe Regional

DERNIER METAR :
  • 221053Z AUTO 10003KT 10SM CLR 01/M03 A3035 RMK AO2 SLP278 T00061028

METARs EXPIRÉS :
  • 220953Z AUTO 07004KT 10SM CLR M01/M03 A3039 RMK AO2 SLP290 T10061028
  • 220853Z AUTO 28004KT 10SM CLR 00/M03 A3042 RMK AO2 SLP301 T00001028 55004

TAF KMLU
Valide du 22 à 06h jusqu'au 23 à 06h UTC


220540Z 2206/2306 08004KT P6SM SKC
FM221500 15006KT P6SM VCSH SCT060 BKN100 OVC250
FM221800 14005KT 5SM -SHRA BR OVC050
FM230000 12006KT 4SM -RA BR OVC007
FM230300 10006KT 1 1/2SM -RA BR OVC007



MET'MAP, la Météo Aéronautique d'un coup d'oeil ! - Copyright ORBIFLY Décembre 2007 - Disclaimer

ORBIFLY MET'MAP TEAM :

Programmation & Développement : Alexandra Zaïnal
Sur une idée originale de : Baudouin d'Aumeries
Assistance à la programmation : Marc-Olivier Méhu
Soutien technique & logistique : Manuel Goepfert

Contact : metmap@orbifly.com




SOURCES & CREDITS :

   NOAA       Earth
Advisory